sensor_id;sensor_type;location;lat;lon;timestamp;P1;durP1;ratioP1;P2;durP2;ratioP2
20431;SDS011;10375;49.136;10.366;2023-05-20T00:00:19;5.32;;;3.80;;
20431;SDS011;10375;49.136;10.366;2023-05-20T00:02:47;6.65;;;3.38;;
20431;SDS011;10375;49.136;10.366;2023-05-20T00:05:14;5.88;;;3.05;;
20431;SDS011;10375;49.136;10.366;2023-05-20T00:07:41;5.65;;;3.60;;
20431;SDS011;10375;49.136;10.366;2023-05-20T00:10:14;5.90;;;3.75;;
20431;SDS011;10375;49.136;10.366;2023-05-20T00:12:41;5.50;;;3.15;;
20431;SDS011;10375;49.136;10.366;2023-05-20T00:15:09;4.13;;;3.40;;
20431;SDS011;10375;49.136;10.366;2023-05-20T00:20:48;4.90;;;3.80;;
20431;SDS011;10375;49.136;10.366;2023-05-20T00:23:15;7.30;;;3.90;;
20431;SDS011;10375;49.136;10.366;2023-05-20T00:25:43;4.38;;;3.40;;
20431;SDS011;10375;49.136;10.366;2023-05-20T00:28:10;9.55;;;3.80;;
20431;SDS011;10375;49.136;10.366;2023-05-20T00:30:38;5.10;;;3.72;;
20431;SDS011;10375;49.136;10.366;2023-05-20T00:33:15;4.15;;;3.75;;
20431;SDS011;10375;49.136;10.366;2023-05-20T00:35:42;5.13;;;3.28;;
20431;SDS011;10375;49.136;10.366;2023-05-20T00:38:09;5.75;;;3.60;;
20431;SDS011;10375;49.136;10.366;2023-05-20T00:43:06;5.18;;;3.40;;
20431;SDS011;10375;49.136;10.366;2023-05-20T00:45:33;6.57;;;3.63;;
20431;SDS011;10375;49.136;10.366;2023-05-20T00:51:06;5.25;;;3.67;;
20431;SDS011;10375;49.136;10.366;2023-05-20T00:53:33;3.75;;;3.38;;
20431;SDS011;10375;49.136;10.366;2023-05-20T00:59:06;4.75;;;3.20;;
20431;SDS011;10375;49.136;10.366;2023-05-20T01:01:34;6.60;;;3.30;;
20431;SDS011;10375;49.136;10.366;2023-05-20T01:06:47;5.05;;;3.78;;
20431;SDS011;10375;49.136;10.366;2023-05-20T01:09:15;5.95;;;3.85;;
20431;SDS011;10375;49.136;10.366;2023-05-20T01:11:53;4.50;;;3.70;;
20431;SDS011;10375;49.136;10.366;2023-05-20T01:14:28;4.03;;;3.22;;
20431;SDS011;10375;49.136;10.366;2023-05-20T01:17:02;4.22;;;3.72;;
20431;SDS011;10375;49.136;10.366;2023-05-20T01:19:53;4.95;;;3.55;;
20431;SDS011;10375;49.136;10.366;2023-05-20T01:22:25;7.35;;;3.80;;
20431;SDS011;10375;49.136;10.366;2023-05-20T01:24:53;5.28;;;3.92;;
20431;SDS011;10375;49.136;10.366;2023-05-20T01:27:20;14.15;;;4.10;;
20431;SDS011;10375;49.136;10.366;2023-05-20T01:29:50;6.20;;;4.32;;
20431;SDS011;10375;49.136;10.366;2023-05-20T01:32:19;8.98;;;4.05;;
20431;SDS011;10375;49.136;10.366;2023-05-20T01:35:04;5.38;;;3.97;;
20431;SDS011;10375;49.136;10.366;2023-05-20T01:37:33;8.88;;;4.07;;
20431;SDS011;10375;49.136;10.366;2023-05-20T01:42:48;4.82;;;3.90;;
20431;SDS011;10375;49.136;10.366;2023-05-20T01:45:18;10.45;;;4.13;;
20431;SDS011;10375;49.136;10.366;2023-05-20T01:51:03;6.75;;;4.15;;
20431;SDS011;10375;49.136;10.366;2023-05-20T01:53:30;4.40;;;3.85;;
20431;SDS011;10375;49.136;10.366;2023-05-20T01:56:00;9.05;;;4.05;;
20431;SDS011;10375;49.136;10.366;2023-05-20T01:58:27;6.90;;;4.28;;
20431;SDS011;10375;49.136;10.366;2023-05-20T02:00:55;5.93;;;4.50;;
20431;SDS011;10375;49.136;10.366;2023-05-20T02:03:24;5.05;;;4.05;;
20431;SDS011;10375;49.136;10.366;2023-05-20T02:05:52;7.38;;;4.03;;
20431;SDS011;10375;49.136;10.366;2023-05-20T02:08:24;6.10;;;4.75;;
20431;SDS011;10375;49.136;10.366;2023-05-20T02:10:51;5.30;;;4.05;;
20431;SDS011;10375;49.136;10.366;2023-05-20T02:13:18;5.03;;;4.38;;
20431;SDS011;10375;49.136;10.366;2023-05-20T02:15:58;7.68;;;4.40;;
20431;SDS011;10375;49.136;10.366;2023-05-20T02:18:25;4.55;;;3.80;;
20431;SDS011;10375;49.136;10.366;2023-05-20T02:20:52;6.43;;;4.53;;
20431;SDS011;10375;49.136;10.366;2023-05-20T02:23:21;8.00;;;4.03;;
20431;SDS011;10375;49.136;10.366;2023-05-20T02:25:48;5.78;;;4.22;;
20431;SDS011;10375;49.136;10.366;2023-05-20T02:28:15;7.70;;;4.95;;
20431;SDS011;10375;49.136;10.366;2023-05-20T02:30:43;5.13;;;4.63;;
20431;SDS011;10375;49.136;10.366;2023-05-20T02:33:10;8.65;;;4.60;;
20431;SDS011;10375;49.136;10.366;2023-05-20T02:35:38;6.05;;;4.28;;
20431;SDS011;10375;49.136;10.366;2023-05-20T02:38:05;6.70;;;4.63;;
20431;SDS011;10375;49.136;10.366;2023-05-20T02:40:32;8.10;;;4.32;;
20431;SDS011;10375;49.136;10.366;2023-05-20T02:42:59;5.07;;;4.57;;
20431;SDS011;10375;49.136;10.366;2023-05-20T02:45:45;6.43;;;4.70;;
20431;SDS011;10375;49.136;10.366;2023-05-20T02:48:12;6.13;;;4.50;;
20431;SDS011;10375;49.136;10.366;2023-05-20T02:53:10;12.38;;;4.85;;
20431;SDS011;10375;49.136;10.366;2023-05-20T02:55:38;5.07;;;4.40;;
20431;SDS011;10375;49.136;10.366;2023-05-20T02:58:06;7.38;;;4.82;;
20431;SDS011;10375;49.136;10.366;2023-05-20T03:00:33;5.13;;;4.15;;
20431;SDS011;10375;49.136;10.366;2023-05-20T03:03:06;7.03;;;4.85;;
20431;SDS011;10375;49.136;10.366;2023-05-20T03:08:11;8.77;;;4.95;;
20431;SDS011;10375;49.136;10.366;2023-05-20T03:10:39;12.45;;;4.78;;
20431;SDS011;10375;49.136;10.366;2023-05-20T03:13:07;10.90;;;5.03;;
20431;SDS011;10375;49.136;10.366;2023-05-20T03:15:39;6.68;;;5.78;;
20431;SDS011;10375;49.136;10.366;2023-05-20T03:18:07;8.77;;;4.85;;
20431;SDS011;10375;49.136;10.366;2023-05-20T03:20:35;5.53;;;4.97;;
20431;SDS011;10375;49.136;10.366;2023-05-20T03:23:02;9.70;;;6.22;;
20431;SDS011;10375;49.136;10.366;2023-05-20T03:25:30;9.90;;;5.63;;
20431;SDS011;10375;49.136;10.366;2023-05-20T03:27:57;6.28;;;4.97;;
20431;SDS011;10375;49.136;10.366;2023-05-20T03:30:25;10.95;;;5.43;;
20431;SDS011;10375;49.136;10.366;2023-05-20T03:32:54;6.93;;;4.90;;
20431;SDS011;10375;49.136;10.366;2023-05-20T03:35:24;9.82;;;5.28;;
20431;SDS011;10375;49.136;10.366;2023-05-20T03:37:51;8.23;;;4.80;;
20431;SDS011;10375;49.136;10.366;2023-05-20T03:40:19;8.32;;;4.85;;
20431;SDS011;10375;49.136;10.366;2023-05-20T03:42:46;9.13;;;5.25;;
20431;SDS011;10375;49.136;10.366;2023-05-20T03:45:15;10.07;;;5.68;;
20431;SDS011;10375;49.136;10.366;2023-05-20T03:47:42;12.10;;;5.40;;
20431;SDS011;10375;49.136;10.366;2023-05-20T03:50:09;6.93;;;4.88;;
20431;SDS011;10375;49.136;10.366;2023-05-20T03:52:36;9.68;;;5.68;;
20431;SDS011;10375;49.136;10.366;2023-05-20T03:55:04;6.53;;;5.05;;
20431;SDS011;10375;49.136;10.366;2023-05-20T03:57:31;8.35;;;5.13;;
20431;SDS011;10375;49.136;10.366;2023-05-20T03:59:59;7.45;;;5.38;;
20431;SDS011;10375;49.136;10.366;2023-05-20T04:02:29;5.80;;;4.95;;
20431;SDS011;10375;49.136;10.366;2023-05-20T04:04:57;5.72;;;4.93;;
20431;SDS011;10375;49.136;10.366;2023-05-20T04:07:26;10.20;;;5.35;;
20431;SDS011;10375;49.136;10.366;2023-05-20T04:09:55;9.63;;;5.72;;
20431;SDS011;10375;49.136;10.366;2023-05-20T04:12:22;14.40;;;6.07;;
20431;SDS011;10375;49.136;10.366;2023-05-20T04:14:53;16.30;;;6.40;;
20431;SDS011;10375;49.136;10.366;2023-05-20T04:17:21;7.90;;;5.78;;
20431;SDS011;10375;49.136;10.366;2023-05-20T04:19:48;8.45;;;5.45;;
20431;SDS011;10375;49.136;10.366;2023-05-20T04:22:15;14.10;;;6.47;;
20431;SDS011;10375;49.136;10.366;2023-05-20T04:24:42;8.55;;;6.03;;
20431;SDS011;10375;49.136;10.366;2023-05-20T04:27:10;13.77;;;6.05;;
20431;SDS011;10375;49.136;10.366;2023-05-20T04:29:37;8.63;;;5.82;;
20431;SDS011;10375;49.136;10.366;2023-05-20T04:32:08;16.20;;;6.00;;
20431;SDS011;10375;49.136;10.366;2023-05-20T04:34:36;10.52;;;5.47;;
20431;SDS011;10375;49.136;10.366;2023-05-20T04:37:05;6.97;;;6.22;;
20431;SDS011;10375;49.136;10.366;2023-05-20T04:39:34;9.00;;;6.47;;
20431;SDS011;10375;49.136;10.366;2023-05-20T04:42:03;7.60;;;6.03;;
20431;SDS011;10375;49.136;10.366;2023-05-20T04:44:30;9.00;;;6.28;;
20431;SDS011;10375;49.136;10.366;2023-05-20T04:46:57;7.53;;;5.88;;
20431;SDS011;10375;49.136;10.366;2023-05-20T04:49:24;9.30;;;6.13;;
20431;SDS011;10375;49.136;10.366;2023-05-20T04:51:52;7.20;;;5.70;;
20431;SDS011;10375;49.136;10.366;2023-05-20T04:54:20;6.57;;;5.25;;
20431;SDS011;10375;49.136;10.366;2023-05-20T04:56:48;9.50;;;5.93;;
20431;SDS011;10375;49.136;10.366;2023-05-20T04:59:15;8.52;;;5.32;;
20431;SDS011;10375;49.136;10.366;2023-05-20T05:01:42;8.65;;;6.45;;
20431;SDS011;10375;49.136;10.366;2023-05-20T05:04:10;9.90;;;6.38;;
20431;SDS011;10375;49.136;10.366;2023-05-20T05:06:39;8.07;;;5.57;;
20431;SDS011;10375;49.136;10.366;2023-05-20T05:09:06;6.90;;;5.50;;
20431;SDS011;10375;49.136;10.366;2023-05-20T05:11:33;7.72;;;5.57;;
20431;SDS011;10375;49.136;10.366;2023-05-20T05:14:00;7.72;;;5.93;;
20431;SDS011;10375;49.136;10.366;2023-05-20T05:16:27;9.40;;;5.82;;
20431;SDS011;10375;49.136;10.366;2023-05-20T05:18:55;8.20;;;6.30;;
20431;SDS011;10375;49.136;10.366;2023-05-20T05:21:23;8.30;;;6.18;;
20431;SDS011;10375;49.136;10.366;2023-05-20T05:23:50;22.30;;;6.72;;
20431;SDS011;10375;49.136;10.366;2023-05-20T05:26:17;6.75;;;5.60;;
20431;SDS011;10375;49.136;10.366;2023-05-20T05:28:44;11.55;;;6.00;;
20431;SDS011;10375;49.136;10.366;2023-05-20T05:31:11;6.78;;;5.60;;
20431;SDS011;10375;49.136;10.366;2023-05-20T05:33:38;7.25;;;5.40;;
20431;SDS011;10375;49.136;10.366;2023-05-20T05:36:05;6.78;;;5.57;;
20431;SDS011;10375;49.136;10.366;2023-05-20T05:38:34;7.30;;;5.25;;
20431;SDS011;10375;49.136;10.366;2023-05-20T05:41:01;15.50;;;6.60;;
20431;SDS011;10375;49.136;10.366;2023-05-20T05:43:28;9.70;;;5.35;;
20431;SDS011;10375;49.136;10.366;2023-05-20T05:45:57;8.88;;;6.20;;
20431;SDS011;10375;49.136;10.366;2023-05-20T05:48:24;6.80;;;6.10;;
20431;SDS011;10375;49.136;10.366;2023-05-20T05:50:51;8.07;;;6.35;;
20431;SDS011;10375;49.136;10.366;2023-05-20T05:53:18;8.23;;;6.57;;
20431;SDS011;10375;49.136;10.366;2023-05-20T05:55:45;9.27;;;6.88;;
20431;SDS011;10375;49.136;10.366;2023-05-20T05:58:13;8.77;;;6.88;;
20431;SDS011;10375;49.136;10.366;2023-05-20T06:00:40;8.45;;;6.03;;
20431;SDS011;10375;49.136;10.366;2023-05-20T06:03:07;7.53;;;6.57;;
20431;SDS011;10375;49.136;10.366;2023-05-20T06:05:34;6.43;;;5.75;;
20431;SDS011;10375;49.136;10.366;2023-05-20T06:08:02;6.93;;;5.40;;
20431;SDS011;10375;49.136;10.366;2023-05-20T06:10:29;6.70;;;5.35;;
20431;SDS011;10375;49.136;10.366;2023-05-20T06:12:56;9.75;;;5.95;;
20431;SDS011;10375;49.136;10.366;2023-05-20T06:15:23;8.15;;;5.97;;
20431;SDS011;10375;49.136;10.366;2023-05-20T06:17:51;5.82;;;5.15;;
20431;SDS011;10375;49.136;10.366;2023-05-20T06:20:18;9.07;;;5.75;;
20431;SDS011;10375;49.136;10.366;2023-05-20T06:22:45;7.47;;;5.68;;
20431;SDS011;10375;49.136;10.366;2023-05-20T06:25:12;7.55;;;5.70;;
20431;SDS011;10375;49.136;10.366;2023-05-20T06:27:40;7.63;;;5.13;;
20431;SDS011;10375;49.136;10.366;2023-05-20T06:30:07;9.10;;;5.18;;
20431;SDS011;10375;49.136;10.366;2023-05-20T06:32:34;7.47;;;5.00;;
20431;SDS011;10375;49.136;10.366;2023-05-20T06:35:01;6.57;;;5.07;;
20431;SDS011;10375;49.136;10.366;2023-05-20T06:37:29;7.90;;;5.65;;
20431;SDS011;10375;49.136;10.366;2023-05-20T06:39:56;9.95;;;6.25;;
20431;SDS011;10375;49.136;10.366;2023-05-20T06:42:23;9.35;;;5.15;;
20431;SDS011;10375;49.136;10.366;2023-05-20T06:44:50;7.40;;;5.95;;
20431;SDS011;10375;49.136;10.366;2023-05-20T06:47:17;6.70;;;5.75;;
20431;SDS011;10375;49.136;10.366;2023-05-20T06:49:45;7.03;;;5.55;;
20431;SDS011;10375;49.136;10.366;2023-05-20T06:52:13;9.45;;;5.53;;
20431;SDS011;10375;49.136;10.366;2023-05-20T06:54:40;7.65;;;5.50;;
20431;SDS011;10375;49.136;10.366;2023-05-20T06:57:07;10.43;;;6.28;;
20431;SDS011;10375;49.136;10.366;2023-05-20T07:02:07;7.10;;;5.70;;
20431;SDS011;10375;49.136;10.366;2023-05-20T07:04:34;8.43;;;5.53;;
20431;SDS011;10375;49.136;10.366;2023-05-20T07:07:01;7.85;;;5.53;;
20431;SDS011;10375;49.136;10.366;2023-05-20T07:09:28;9.93;;;5.70;;
20431;SDS011;10375;49.136;10.366;2023-05-20T07:11:55;14.27;;;5.40;;
20431;SDS011;10375;49.136;10.366;2023-05-20T07:14:22;6.45;;;5.70;;
20431;SDS011;10375;49.136;10.366;2023-05-20T07:16:50;10.88;;;5.78;;
20431;SDS011;10375;49.136;10.366;2023-05-20T07:19:17;8.00;;;5.43;;
20431;SDS011;10375;49.136;10.366;2023-05-20T07:21:45;7.90;;;6.00;;
20431;SDS011;10375;49.136;10.366;2023-05-20T07:24:12;19.73;;;6.43;;
20431;SDS011;10375;49.136;10.366;2023-05-20T07:26:39;10.15;;;5.43;;
20431;SDS011;10375;49.136;10.366;2023-05-20T07:29:07;6.70;;;5.45;;
20431;SDS011;10375;49.136;10.366;2023-05-20T07:31:35;7.22;;;5.97;;
20431;SDS011;10375;49.136;10.366;2023-05-20T07:34:03;7.45;;;5.63;;
20431;SDS011;10375;49.136;10.366;2023-05-20T07:36:30;5.95;;;4.93;;
20431;SDS011;10375;49.136;10.366;2023-05-20T07:38:57;8.32;;;5.20;;
20431;SDS011;10375;49.136;10.366;2023-05-20T07:41:31;8.13;;;4.93;;
20431;SDS011;10375;49.136;10.366;2023-05-20T07:44:00;6.07;;;5.07;;
20431;SDS011;10375;49.136;10.366;2023-05-20T07:46:28;6.13;;;5.30;;
20431;SDS011;10375;49.136;10.366;2023-05-20T07:48:56;10.55;;;6.55;;
20431;SDS011;10375;49.136;10.366;2023-05-20T07:51:23;7.78;;;5.75;;
20431;SDS011;10375;49.136;10.366;2023-05-20T07:53:50;5.50;;;5.00;;
20431;SDS011;10375;49.136;10.366;2023-05-20T07:56:17;6.25;;;5.07;;
20431;SDS011;10375;49.136;10.366;2023-05-20T07:58:50;8.90;;;5.72;;
20431;SDS011;10375;49.136;10.366;2023-05-20T08:01:19;9.85;;;5.25;;
20431;SDS011;10375;49.136;10.366;2023-05-20T08:03:46;8.15;;;5.60;;
20431;SDS011;10375;49.136;10.366;2023-05-20T08:06:13;8.63;;;5.78;;
20431;SDS011;10375;49.136;10.366;2023-05-20T08:08:41;6.45;;;5.25;;
20431;SDS011;10375;49.136;10.366;2023-05-20T08:11:08;6.97;;;5.75;;
20431;SDS011;10375;49.136;10.366;2023-05-20T08:13:35;7.93;;;5.45;;
20431;SDS011;10375;49.136;10.366;2023-05-20T08:16:03;6.18;;;5.47;;
20431;SDS011;10375;49.136;10.366;2023-05-20T08:18:31;8.15;;;5.28;;
20431;SDS011;10375;49.136;10.366;2023-05-20T08:20:59;9.70;;;5.55;;
20431;SDS011;10375;49.136;10.366;2023-05-20T08:23:27;7.47;;;5.72;;
20431;SDS011;10375;49.136;10.366;2023-05-20T08:25:55;10.02;;;5.10;;
20431;SDS011;10375;49.136;10.366;2023-05-20T08:28:22;21.55;;;6.32;;
20431;SDS011;10375;49.136;10.366;2023-05-20T08:30:50;7.22;;;5.05;;
20431;SDS011;10375;49.136;10.366;2023-05-20T08:33:17;8.30;;;5.10;;
20431;SDS011;10375;49.136;10.366;2023-05-20T08:35:44;6.57;;;5.35;;
20431;SDS011;10375;49.136;10.366;2023-05-20T08:38:11;10.85;;;6.03;;
20431;SDS011;10375;49.136;10.366;2023-05-20T08:40:39;5.45;;;4.95;;
20431;SDS011;10375;49.136;10.366;2023-05-20T08:43:06;12.43;;;4.82;;
20431;SDS011;10375;49.136;10.366;2023-05-20T08:45:33;5.55;;;4.70;;
20431;SDS011;10375;49.136;10.366;2023-05-20T08:48:04;21.83;;;6.13;;
20431;SDS011;10375;49.136;10.366;2023-05-20T08:50:32;6.93;;;5.05;;
20431;SDS011;10375;49.136;10.366;2023-05-20T08:53:00;7.25;;;5.20;;
20431;SDS011;10375;49.136;10.366;2023-05-20T08:58:08;6.57;;;5.15;;
20431;SDS011;10375;49.136;10.366;2023-05-20T09:00:35;6.72;;;5.57;;
20431;SDS011;10375;49.136;10.366;2023-05-20T09:03:03;7.30;;;5.80;;
20431;SDS011;10375;49.136;10.366;2023-05-20T09:05:30;7.38;;;5.38;;
20431;SDS011;10375;49.136;10.366;2023-05-20T09:08:05;7.22;;;5.43;;
20431;SDS011;10375;49.136;10.366;2023-05-20T09:10:39;8.68;;;6.20;;
20431;SDS011;10375;49.136;10.366;2023-05-20T09:13:07;9.15;;;5.57;;
20431;SDS011;10375;49.136;10.366;2023-05-20T09:15:35;7.53;;;5.50;;
20431;SDS011;10375;49.136;10.366;2023-05-20T09:18:04;10.07;;;5.28;;
20431;SDS011;10375;49.136;10.366;2023-05-20T09:20:34;6.47;;;5.10;;
20431;SDS011;10375;49.136;10.366;2023-05-20T09:23:03;7.63;;;5.45;;
20431;SDS011;10375;49.136;10.366;2023-05-20T09:25:32;4.85;;;4.20;;
20431;SDS011;10375;49.136;10.366;2023-05-20T09:28:00;10.27;;;5.03;;
20431;SDS011;10375;49.136;10.366;2023-05-20T09:30:33;8.98;;;4.93;;
20431;SDS011;10375;49.136;10.366;2023-05-20T09:33:02;6.30;;;5.20;;
20431;SDS011;10375;49.136;10.366;2023-05-20T09:35:33;7.20;;;5.05;;
20431;SDS011;10375;49.136;10.366;2023-05-20T09:38:04;6.55;;;4.57;;
20431;SDS011;10375;49.136;10.366;2023-05-20T09:40:35;4.97;;;4.30;;
20431;SDS011;10375;49.136;10.366;2023-05-20T09:43:04;5.70;;;4.85;;
20431;SDS011;10375;49.136;10.366;2023-05-20T09:45:37;4.47;;;4.00;;
20431;SDS011;10375;49.136;10.366;2023-05-20T09:48:04;5.55;;;4.90;;
20431;SDS011;10375;49.136;10.366;2023-05-20T09:50:34;5.50;;;4.38;;
20431;SDS011;10375;49.136;10.366;2023-05-20T09:53:02;5.05;;;4.20;;
20431;SDS011;10375;49.136;10.366;2023-05-20T09:55:30;5.47;;;4.80;;
20431;SDS011;10375;49.136;10.366;2023-05-20T09:58:02;9.35;;;4.97;;
20431;SDS011;10375;49.136;10.366;2023-05-20T10:00:29;7.78;;;4.25;;
20431;SDS011;10375;49.136;10.366;2023-05-20T10:02:57;4.88;;;4.35;;
20431;SDS011;10375;49.136;10.366;2023-05-20T10:05:29;6.13;;;3.83;;
20431;SDS011;10375;49.136;10.366;2023-05-20T10:17:09;4.25;;;3.75;;
20431;SDS011;10375;49.136;10.366;2023-05-20T10:19:56;6.30;;;4.07;;
20431;SDS011;10375;49.136;10.366;2023-05-20T10:22:25;10.57;;;4.40;;
20431;SDS011;10375;49.136;10.366;2023-05-20T10:24:58;5.60;;;3.70;;
20431;SDS011;10375;49.136;10.366;2023-05-20T10:27:26;9.07;;;4.57;;
20431;SDS011;10375;49.136;10.366;2023-05-20T10:29:54;4.53;;;3.85;;
20431;SDS011;10375;49.136;10.366;2023-05-20T10:32:27;4.07;;;3.67;;
20431;SDS011;10375;49.136;10.366;2023-05-20T10:35:03;8.40;;;3.95;;
20431;SDS011;10375;49.136;10.366;2023-05-20T10:37:45;7.90;;;4.40;;
20431;SDS011;10375;49.136;10.366;2023-05-20T10:40:14;5.28;;;4.00;;
20431;SDS011;10375;49.136;10.366;2023-05-20T10:42:43;5.47;;;3.65;;
20431;SDS011;10375;49.136;10.366;2023-05-20T10:45:11;13.30;;;4.05;;
20431;SDS011;10375;49.136;10.366;2023-05-20T10:47:56;4.53;;;3.85;;
20431;SDS011;10375;49.136;10.366;2023-05-20T10:50:25;5.00;;;3.72;;
20431;SDS011;10375;49.136;10.366;2023-05-20T10:52:54;6.00;;;3.28;;
20431;SDS011;10375;49.136;10.366;2023-05-20T10:55:34;3.45;;;3.05;;
20431;SDS011;10375;49.136;10.366;2023-05-20T10:58:05;7.75;;;3.25;;
20431;SDS011;10375;49.136;10.366;2023-05-20T11:00:33;5.57;;;3.78;;
20431;SDS011;10375;49.136;10.366;2023-05-20T11:03:03;5.47;;;3.42;;
20431;SDS011;10375;49.136;10.366;2023-05-20T11:05:32;8.20;;;4.00;;
20431;SDS011;10375;49.136;10.366;2023-05-20T11:08:03;5.30;;;3.13;;
20431;SDS011;10375;49.136;10.366;2023-05-20T11:10:52;9.73;;;3.78;;
20431;SDS011;10375;49.136;10.366;2023-05-20T11:13:22;3.60;;;3.20;;
20431;SDS011;10375;49.136;10.366;2023-05-20T11:15:51;8.65;;;3.88;;
20431;SDS011;10375;49.136;10.366;2023-05-20T11:18:25;4.47;;;3.53;;
20431;SDS011;10375;49.136;10.366;2023-05-20T11:20:57;5.03;;;3.80;;
20431;SDS011;10375;49.136;10.366;2023-05-20T11:23:28;4.63;;;3.72;;
20431;SDS011;10375;49.136;10.366;2023-05-20T11:25:55;4.82;;;3.55;;
20431;SDS011;10375;49.136;10.366;2023-05-20T11:28:25;5.45;;;3.38;;
20431;SDS011;10375;49.136;10.366;2023-05-20T11:30:52;10.77;;;4.80;;
20431;SDS011;10375;49.136;10.366;2023-05-20T11:35:52;4.10;;;3.03;;
20431;SDS011;10375;49.136;10.366;2023-05-20T11:38:20;6.72;;;3.58;;
20431;SDS011;10375;49.136;10.366;2023-05-20T11:40:54;4.13;;;3.72;;
20431;SDS011;10375;49.136;10.366;2023-05-20T11:43:22;6.32;;;3.63;;
20431;SDS011;10375;49.136;10.366;2023-05-20T11:45:56;4.07;;;3.67;;
20431;SDS011;10375;49.136;10.366;2023-05-20T11:48:26;3.92;;;3.30;;
20431;SDS011;10375;49.136;10.366;2023-05-20T11:50:54;4.30;;;3.25;;
20431;SDS011;10375;49.136;10.366;2023-05-20T11:53:23;7.13;;;3.20;;
20431;SDS011;10375;49.136;10.366;2023-05-20T11:58:20;3.92;;;3.30;;
20431;SDS011;10375;49.136;10.366;2023-05-20T12:00:48;3.72;;;3.20;;
20431;SDS011;10375;49.136;10.366;2023-05-20T12:03:30;4.57;;;3.33;;
20431;SDS011;10375;49.136;10.366;2023-05-20T12:06:01;6.60;;;3.80;;
20431;SDS011;10375;49.136;10.366;2023-05-20T12:08:29;5.68;;;4.20;;
20431;SDS011;10375;49.136;10.366;2023-05-20T12:10:56;5.15;;;3.45;;
20431;SDS011;10375;49.136;10.366;2023-05-20T12:13:23;5.93;;;3.30;;
20431;SDS011;10375;49.136;10.366;2023-05-20T12:15:50;5.03;;;3.00;;
20431;SDS011;10375;49.136;10.366;2023-05-20T12:18:18;3.75;;;3.33;;
20431;SDS011;10375;49.136;10.366;2023-05-20T12:20:45;4.45;;;3.75;;
20431;SDS011;10375;49.136;10.366;2023-05-20T12:23:12;5.80;;;4.20;;
20431;SDS011;10375;49.136;10.366;2023-05-20T12:25:39;3.38;;;3.00;;
20431;SDS011;10375;49.136;10.366;2023-05-20T12:28:08;5.32;;;3.15;;
20431;SDS011;10375;49.136;10.366;2023-05-20T12:30:35;3.83;;;3.50;;
20431;SDS011;10375;49.136;10.366;2023-05-20T12:33:03;5.25;;;2.85;;
20431;SDS011;10375;49.136;10.366;2023-05-20T12:35:40;5.82;;;3.60;;
20431;SDS011;10375;49.136;10.366;2023-05-20T12:38:08;5.57;;;2.97;;
20431;SDS011;10375;49.136;10.366;2023-05-20T12:40:36;5.55;;;3.10;;
20431;SDS011;10375;49.136;10.366;2023-05-20T12:43:04;4.32;;;3.40;;
20431;SDS011;10375;49.136;10.366;2023-05-20T12:45:31;6.57;;;3.88;;
20431;SDS011;10375;49.136;10.366;2023-05-20T12:47:59;5.15;;;3.08;;
20431;SDS011;10375;49.136;10.366;2023-05-20T12:50:27;11.85;;;3.60;;
20431;SDS011;10375;49.136;10.366;2023-05-20T12:52:54;12.20;;;4.28;;
20431;SDS011;10375;49.136;10.366;2023-05-20T12:55:21;8.30;;;3.50;;
20431;SDS011;10375;49.136;10.366;2023-05-20T12:57:49;6.03;;;3.00;;
20431;SDS011;10375;49.136;10.366;2023-05-20T13:00:16;6.80;;;3.05;;
20431;SDS011;10375;49.136;10.366;2023-05-20T13:02:43;4.45;;;3.22;;
20431;SDS011;10375;49.136;10.366;2023-05-20T13:05:11;6.45;;;2.90;;
20431;SDS011;10375;49.136;10.366;2023-05-20T13:07:39;5.55;;;3.35;;
20431;SDS011;10375;49.136;10.366;2023-05-20T13:10:06;6.22;;;3.70;;
20431;SDS011;10375;49.136;10.366;2023-05-20T13:12:34;4.57;;;3.53;;
20431;SDS011;10375;49.136;10.366;2023-05-20T13:15:01;3.65;;;3.22;;
20431;SDS011;10375;49.136;10.366;2023-05-20T13:17:29;4.05;;;3.40;;
20431;SDS011;10375;49.136;10.366;2023-05-20T13:19:57;4.03;;;3.45;;
20431;SDS011;10375;49.136;10.366;2023-05-20T13:22:24;6.55;;;3.90;;
20431;SDS011;10375;49.136;10.366;2023-05-20T13:24:51;4.40;;;3.38;;
20431;SDS011;10375;49.136;10.366;2023-05-20T13:27:18;6.63;;;3.50;;
20431;SDS011;10375;49.136;10.366;2023-05-20T13:29:46;6.05;;;4.22;;
20431;SDS011;10375;49.136;10.366;2023-05-20T13:32:13;5.28;;;3.83;;
20431;SDS011;10375;49.136;10.366;2023-05-20T13:34:40;6.10;;;3.60;;
20431;SDS011;10375;49.136;10.366;2023-05-20T13:37:07;4.10;;;3.45;;
20431;SDS011;10375;49.136;10.366;2023-05-20T13:39:34;4.70;;;3.95;;
20431;SDS011;10375;49.136;10.366;2023-05-20T13:42:01;4.05;;;3.65;;
20431;SDS011;10375;49.136;10.366;2023-05-20T13:44:29;4.82;;;3.55;;
20431;SDS011;10375;49.136;10.366;2023-05-20T13:46:58;4.22;;;3.22;;
20431;SDS011;10375;49.136;10.366;2023-05-20T13:49:25;4.60;;;3.90;;
20431;SDS011;10375;49.136;10.366;2023-05-20T13:51:52;7.78;;;3.47;;
20431;SDS011;10375;49.136;10.366;2023-05-20T13:54:20;5.22;;;3.22;;
20431;SDS011;10375;49.136;10.366;2023-05-20T13:56:47;4.40;;;3.33;;
20431;SDS011;10375;49.136;10.366;2023-05-20T13:59:14;4.63;;;3.50;;
20431;SDS011;10375;49.136;10.366;2023-05-20T14:01:42;4.68;;;3.55;;
20431;SDS011;10375;49.136;10.366;2023-05-20T14:04:11;5.95;;;3.85;;
20431;SDS011;10375;49.136;10.366;2023-05-20T14:06:38;7.10;;;3.63;;
20431;SDS011;10375;49.136;10.366;2023-05-20T14:09:06;7.78;;;3.92;;
20431;SDS011;10375;49.136;10.366;2023-05-20T14:11:36;6.80;;;4.60;;
20431;SDS011;10375;49.136;10.366;2023-05-20T14:14:03;4.68;;;3.75;;
20431;SDS011;10375;49.136;10.366;2023-05-20T14:16:30;8.55;;;4.32;;
20431;SDS011;10375;49.136;10.366;2023-05-20T14:18:58;7.20;;;4.50;;
20431;SDS011;10375;49.136;10.366;2023-05-20T14:21:25;4.78;;;4.30;;
20431;SDS011;10375;49.136;10.366;2023-05-20T14:23:52;5.40;;;4.75;;
20431;SDS011;10375;49.136;10.366;2023-05-20T14:26:19;5.13;;;4.57;;
20431;SDS011;10375;49.136;10.366;2023-05-20T14:28:47;6.65;;;5.03;;
20431;SDS011;10375;49.136;10.366;2023-05-20T14:31:14;7.60;;;4.72;;
20431;SDS011;10375;49.136;10.366;2023-05-20T14:33:41;5.55;;;4.82;;
20431;SDS011;10375;49.136;10.366;2023-05-20T14:36:09;8.93;;;5.28;;
20431;SDS011;10375;49.136;10.366;2023-05-20T14:38:37;5.32;;;4.82;;
20431;SDS011;10375;49.136;10.366;2023-05-20T14:41:04;10.02;;;5.32;;
20431;SDS011;10375;49.136;10.366;2023-05-20T14:43:31;6.25;;;4.95;;
20431;SDS011;10375;49.136;10.366;2023-05-20T14:45:59;5.65;;;4.97;;
20431;SDS011;10375;49.136;10.366;2023-05-20T14:48:27;7.45;;;5.30;;
20431;SDS011;10375;49.136;10.366;2023-05-20T14:50:55;7.20;;;5.13;;
20431;SDS011;10375;49.136;10.366;2023-05-20T14:53:22;6.13;;;5.50;;
20431;SDS011;10375;49.136;10.366;2023-05-20T14:55:50;5.75;;;4.85;;
20431;SDS011;10375;49.136;10.366;2023-05-20T14:58:17;6.30;;;4.85;;
20431;SDS011;10375;49.136;10.366;2023-05-20T15:00:45;7.85;;;5.35;;
20431;SDS011;10375;49.136;10.366;2023-05-20T15:03:12;10.05;;;5.28;;
20431;SDS011;10375;49.136;10.366;2023-05-20T15:05:39;10.00;;;5.35;;
20431;SDS011;10375;49.136;10.366;2023-05-20T15:08:07;12.57;;;5.55;;
20431;SDS011;10375;49.136;10.366;2023-05-20T15:10:34;8.40;;;5.38;;
20431;SDS011;10375;49.136;10.366;2023-05-20T15:13:02;9.15;;;5.40;;
20431;SDS011;10375;49.136;10.366;2023-05-20T15:15:29;7.80;;;5.18;;
20431;SDS011;10375;49.136;10.366;2023-05-20T15:17:57;5.75;;;5.18;;
20431;SDS011;10375;49.136;10.366;2023-05-20T15:20:24;12.48;;;5.70;;
20431;SDS011;10375;49.136;10.366;2023-05-20T15:22:52;120.40;;;12.73;;
20431;SDS011;10375;49.136;10.366;2023-05-20T15:25:19;81.05;;;10.65;;